createdAt,value
2018-11-27T00:00:30.558Z,3.40
2018-11-27T00:03:00.514Z,3.40
2018-11-27T00:05:29.441Z,3.40
2018-11-27T00:07:57.644Z,3.40
2018-11-27T00:10:25.799Z,3.40
2018-11-27T00:12:53.987Z,3.40
2018-11-27T00:15:22.153Z,3.30
2018-11-27T00:17:50.551Z,3.30
2018-11-27T00:20:18.719Z,3.40
2018-11-27T00:22:46.899Z,3.40
2018-11-27T00:25:16.335Z,3.30
2018-11-27T00:27:44.523Z,3.40
2018-11-27T00:30:14.987Z,3.30
2018-11-27T00:32:43.166Z,3.30
2018-11-27T00:35:13.147Z,3.30
2018-11-27T00:37:41.386Z,3.30
2018-11-27T00:40:13.791Z,3.40
2018-11-27T00:42:42.000Z,3.40
2018-11-27T00:45:12.223Z,3.30
2018-11-27T00:47:40.523Z,3.30
2018-11-27T00:50:12.738Z,3.30
2018-11-27T00:52:40.935Z,3.20
2018-11-27T00:55:11.032Z,3.20
2018-11-27T00:57:39.707Z,3.30
2018-11-27T01:00:12.792Z,3.20
2018-11-27T01:02:40.984Z,3.20
2018-11-27T01:05:10.788Z,3.20
2018-11-27T01:07:38.998Z,3.20
2018-11-27T01:10:17.489Z,3.20
2018-11-27T01:12:45.688Z,3.10
2018-11-27T01:15:14.543Z,3.10
2018-11-27T01:17:47.021Z,3.10
2018-11-27T01:20:18.062Z,3.20
2018-11-27T01:22:46.253Z,3.10
2018-11-27T01:25:14.443Z,3.10
2018-11-27T01:27:42.629Z,3.10
2018-11-27T01:30:11.971Z,3.10
2018-11-27T01:32:40.158Z,3.10
2018-11-27T01:35:16.233Z,3.10
2018-11-27T01:37:44.558Z,3.10
2018-11-27T01:40:21.447Z,3.10
2018-11-27T01:42:51.562Z,3.10
2018-11-27T01:45:20.578Z,3.10
2018-11-27T01:47:48.858Z,3.10
2018-11-27T01:50:17.722Z,3.10
2018-11-27T01:52:45.931Z,3.10
2018-11-27T01:55:15.098Z,3.10
2018-11-27T01:57:44.384Z,3.10
2018-11-27T02:00:20.260Z,3.10
2018-11-27T02:02:48.464Z,3.00
2018-11-27T02:05:16.635Z,3.00
2018-11-27T02:07:44.822Z,3.00
2018-11-27T02:10:13.233Z,3.00
2018-11-27T02:12:42.848Z,3.00
2018-11-27T02:15:13.395Z,3.00
2018-11-27T02:17:41.571Z,3.00
2018-11-27T02:20:10.927Z,3.00
2018-11-27T02:22:39.295Z,3.00
2018-11-27T02:25:13.782Z,3.00
2018-11-27T02:27:41.947Z,3.00
2018-11-27T02:30:11.753Z,3.00
2018-11-27T02:32:39.923Z,3.00
2018-11-27T02:35:17.863Z,3.00
2018-11-27T02:37:46.688Z,3.00
2018-11-27T02:40:15.719Z,3.00
2018-11-27T02:42:43.919Z,3.00
2018-11-27T02:45:14.052Z,3.00
2018-11-27T02:47:42.492Z,3.00
2018-11-27T02:50:11.663Z,3.00
2018-11-27T02:52:39.860Z,3.00
2018-11-27T02:55:13.882Z,3.00
2018-11-27T02:57:42.073Z,3.00
2018-11-27T03:00:11.535Z,3.00
2018-11-27T03:02:39.847Z,3.00
2018-11-27T03:05:13.392Z,2.90
2018-11-27T03:07:41.581Z,2.90
2018-11-27T03:10:12.004Z,2.90
2018-11-27T03:12:40.186Z,3.00
2018-11-27T03:15:10.990Z,2.90
2018-11-27T03:17:39.313Z,2.90
2018-11-27T03:20:09.816Z,3.00
2018-11-27T03:22:38.382Z,3.00
2018-11-27T03:25:09.735Z,3.00
2018-11-27T03:27:37.953Z,3.00
2018-11-27T03:30:10.612Z,3.00
2018-11-27T03:32:38.799Z,3.00
2018-11-27T03:35:09.051Z,3.00
2018-11-27T03:37:37.225Z,3.00
2018-11-27T03:40:08.197Z,3.00
2018-11-27T03:42:36.354Z,3.00
2018-11-27T03:45:04.604Z,3.00
2018-11-27T03:47:32.845Z,3.00
2018-11-27T03:50:01.024Z,3.00
2018-11-27T03:52:29.189Z,3.00
2018-11-27T03:54:57.371Z,3.00
2018-11-27T03:57:25.772Z,3.00
2018-11-27T03:59:54.004Z,3.00
2018-11-27T04:02:22.176Z,3.00
2018-11-27T04:04:50.366Z,3.00
2018-11-27T04:07:18.524Z,3.00
2018-11-27T04:09:46.740Z,3.00
2018-11-27T04:12:14.909Z,3.00
2018-11-27T04:14:43.093Z,3.00
2018-11-27T04:17:11.255Z,3.00
2018-11-27T04:19:39.468Z,3.00
2018-11-27T04:22:07.621Z,3.00
2018-11-27T04:24:35.813Z,3.00
2018-11-27T04:27:03.972Z,3.00
2018-11-27T04:29:32.145Z,3.00
2018-11-27T04:32:00.324Z,3.00
2018-11-27T04:34:28.497Z,3.00
2018-11-27T04:36:56.688Z,3.00
2018-11-27T04:39:24.857Z,3.00
2018-11-27T04:41:53.080Z,3.10
2018-11-27T04:44:21.248Z,3.00
2018-11-27T04:46:49.439Z,3.00
2018-11-27T04:49:17.619Z,3.00
2018-11-27T04:51:45.832Z,3.00
2018-11-27T04:54:13.995Z,3.00
2018-11-27T04:57:03.452Z,3.00
2018-11-27T04:59:31.648Z,3.00
2018-11-27T05:01:59.852Z,3.10
2018-11-27T05:04:29.020Z,3.00
2018-11-27T05:06:57.224Z,3.00
2018-11-27T05:09:25.389Z,3.00
2018-11-27T05:11:54.567Z,3.10
2018-11-27T05:14:22.727Z,3.00
2018-11-27T05:16:50.907Z,3.00
2018-11-27T05:19:19.099Z,3.00
2018-11-27T05:21:47.284Z,3.00
2018-11-27T05:24:15.468Z,3.00
2018-11-27T05:26:43.672Z,3.10
2018-11-27T05:29:11.836Z,3.00
2018-11-27T05:31:40.031Z,3.00
2018-11-27T05:34:08.239Z,3.10
2018-11-27T05:36:36.394Z,3.10
2018-11-27T05:39:08.127Z,3.10
2018-11-27T05:41:36.579Z,3.10
2018-11-27T05:44:06.631Z,3.10
2018-11-27T05:46:34.827Z,3.10
2018-11-27T05:49:03.344Z,3.00
2018-11-27T05:51:31.559Z,3.00
2018-11-27T05:53:59.731Z,3.00
2018-11-27T05:56:27.910Z,3.00
2018-11-27T05:58:56.072Z,3.00
2018-11-27T06:01:24.263Z,3.00
2018-11-27T06:03:52.561Z,3.00
2018-11-27T06:06:22.054Z,3.00
2018-11-27T06:08:50.206Z,3.00
2018-11-27T06:11:18.430Z,3.00
2018-11-27T06:13:46.606Z,3.00
2018-11-27T06:16:14.790Z,2.90
2018-11-27T06:18:43.023Z,2.90
2018-11-27T06:21:11.213Z,2.90
2018-11-27T06:23:39.414Z,2.90
2018-11-27T06:26:07.713Z,2.90
2018-11-27T06:28:35.971Z,2.90
2018-11-27T06:31:04.147Z,2.90
2018-11-27T06:33:32.330Z,2.90
2018-11-27T06:36:00.503Z,2.90
2018-11-27T06:38:29.212Z,2.90
2018-11-27T06:40:58.069Z,2.90
2018-11-27T06:43:27.074Z,2.90
2018-11-27T06:45:57.290Z,2.90
2018-11-27T06:48:26.636Z,2.90
2018-11-27T06:50:54.991Z,2.90
2018-11-27T06:53:23.179Z,2.90
2018-11-27T06:55:51.453Z,2.90
2018-11-27T06:58:19.653Z,2.90
2018-11-27T07:00:47.831Z,2.90
2018-11-27T07:03:16.083Z,2.90
2018-11-27T07:05:44.253Z,2.90
2018-11-27T07:08:12.437Z,2.90
2018-11-27T07:10:42.286Z,2.90
2018-11-27T07:13:19.806Z,2.90
2018-11-27T07:15:49.582Z,2.90
2018-11-27T07:18:17.786Z,2.90
2018-11-27T07:20:45.964Z,2.90
2018-11-27T07:23:14.166Z,2.90
2018-11-27T07:25:42.327Z,2.90
2018-11-27T07:28:10.591Z,2.90
2018-11-27T07:30:40.061Z,2.90
2018-11-27T07:33:08.323Z,2.90
2018-11-27T07:35:36.877Z,2.90
2018-11-27T07:38:05.304Z,2.90
2018-11-27T07:40:34.755Z,3.00
2018-11-27T07:43:05.840Z,2.90
2018-11-27T07:45:34.316Z,2.90
2018-11-27T07:48:02.536Z,2.90
2018-11-27T07:50:30.747Z,2.90
2018-11-27T07:52:58.953Z,2.90
2018-11-27T07:55:27.144Z,2.90
2018-11-27T07:57:58.492Z,2.90
2018-11-27T08:00:28.195Z,2.90
2018-11-27T08:02:58.031Z,2.90
2018-11-27T08:05:37.617Z,2.90
2018-11-27T08:08:07.098Z,2.90
2018-11-27T08:10:35.235Z,2.90
2018-11-27T08:13:03.420Z,2.90
2018-11-27T08:15:31.723Z,2.90
2018-11-27T08:17:59.900Z,2.90
2018-11-27T08:20:30.775Z,2.90
2018-11-27T08:23:02.935Z,3.00
2018-11-27T08:25:31.111Z,2.90
2018-11-27T08:27:59.299Z,2.90
2018-11-27T08:30:30.899Z,2.90
2018-11-27T08:32:59.103Z,2.90
2018-11-27T08:35:28.551Z,3.00
2018-11-27T08:37:58.024Z,3.00
2018-11-27T08:40:27.403Z,3.00
2018-11-27T08:42:55.577Z,3.00
2018-11-27T08:45:24.475Z,3.00
2018-11-27T08:47:54.698Z,3.00
2018-11-27T08:50:23.911Z,3.00
2018-11-27T08:52:55.289Z,3.00
2018-11-27T08:55:28.881Z,3.00
2018-11-27T08:58:02.283Z,3.00
2018-11-27T09:00:30.519Z,3.00
2018-11-27T09:02:58.695Z,3.00
2018-11-27T09:05:27.013Z,3.10
2018-11-27T09:07:55.184Z,3.10
2018-11-27T09:10:24.549Z,3.10
2018-11-27T09:12:53.140Z,3.10
2018-11-27T09:15:22.212Z,3.10
2018-11-27T09:17:51.915Z,3.20
2018-11-27T09:20:20.941Z,3.20
2018-11-27T09:22:48.562Z,3.20
2018-11-27T09:25:17.474Z,3.20
2018-11-27T09:27:45.679Z,3.20
2018-11-27T09:30:16.004Z,3.20
2018-11-27T09:32:44.191Z,3.20
2018-11-27T09:35:12.415Z,3.20
2018-11-27T09:37:40.946Z,3.20
2018-11-27T09:40:15.044Z,3.20
2018-11-27T09:42:43.247Z,3.20
2018-11-27T09:45:20.210Z,3.20
2018-11-27T09:47:51.370Z,3.20
2018-11-27T09:50:20.893Z,3.30
2018-11-27T09:52:49.211Z,3.30
2018-11-27T09:55:20.321Z,3.30
2018-11-27T09:57:48.575Z,3.30
2018-11-27T10:00:26.790Z,3.30
2018-11-27T10:02:57.019Z,3.30
2018-11-27T10:05:25.175Z,3.30
2018-11-27T10:07:53.380Z,3.30
2018-11-27T10:10:23.422Z,3.40
2018-11-27T10:12:51.621Z,3.40
2018-11-27T10:15:21.775Z,3.40
2018-11-27T10:17:51.194Z,3.40
2018-11-27T10:20:20.423Z,3.40
2018-11-27T10:22:48.606Z,3.40
2018-11-27T10:25:16.764Z,3.40
2018-11-27T10:27:45.218Z,3.40
2018-11-27T10:30:19.643Z,3.50
2018-11-27T10:32:47.996Z,3.50
2018-11-27T10:35:27.661Z,3.50
2018-11-27T10:37:55.882Z,3.50
2018-11-27T10:40:24.041Z,3.60
2018-11-27T10:42:52.360Z,3.60
2018-11-27T10:45:21.540Z,3.60
2018-11-27T10:47:50.832Z,3.70
2018-11-27T10:50:19.236Z,3.70
2018-11-27T10:52:48.549Z,3.80
2018-11-27T10:55:17.405Z,3.80
2018-11-27T10:57:45.652Z,3.90
2018-11-27T11:00:21.303Z,3.90
2018-11-27T11:02:54.903Z,3.90
2018-11-27T11:05:27.696Z,4.00
2018-11-27T11:07:54.657Z,4.00
2018-11-27T11:10:22.835Z,4.00
2018-11-27T11:12:51.085Z,4.10
2018-11-27T11:15:19.262Z,4.10
2018-11-27T11:17:47.491Z,4.20
2018-11-27T11:20:15.655Z,4.20
2018-11-27T11:22:43.839Z,4.20
2018-11-27T11:25:14.337Z,4.30
2018-11-27T11:27:42.876Z,4.30
2018-11-27T11:30:17.120Z,4.30
2018-11-27T11:32:45.368Z,4.30
2018-11-27T11:35:13.610Z,4.30
2018-11-27T11:37:41.922Z,4.30
2018-11-27T11:40:19.330Z,4.30
2018-11-27T11:42:48.188Z,4.40
2018-11-27T11:45:16.358Z,4.40
2018-11-27T11:47:44.549Z,4.50
2018-11-27T11:50:16.837Z,4.50
2018-11-27T11:52:46.579Z,4.60
2018-11-27T11:55:15.696Z,4.60
2018-11-27T11:57:44.152Z,4.60
2018-11-27T12:00:20.571Z,4.70
2018-11-27T12:02:49.792Z,4.70
2018-11-27T12:05:18.287Z,4.60
2018-11-27T12:07:46.499Z,4.60
2018-11-27T12:10:15.666Z,4.60
2018-11-27T12:12:45.705Z,4.60
2018-11-27T12:15:18.673Z,4.60
2018-11-27T12:17:47.519Z,4.60
2018-11-27T12:20:16.644Z,4.60
2018-11-27T12:22:49.520Z,4.70
2018-11-27T12:25:17.812Z,4.70
2018-11-27T12:27:45.999Z,4.80
2018-11-27T12:30:18.042Z,4.90
2018-11-27T12:32:46.272Z,5.00
2018-11-27T12:35:15.102Z,5.00
2018-11-27T12:37:43.328Z,5.10
2018-11-27T12:40:17.490Z,5.20
2018-11-27T12:42:45.683Z,5.30
2018-11-27T12:45:18.214Z,5.30
2018-11-27T12:47:46.481Z,5.30
2018-11-27T12:50:20.961Z,5.40
2018-11-27T12:52:49.155Z,5.40
2018-11-27T12:55:22.471Z,5.40
2018-11-27T12:57:50.660Z,5.40
2018-11-27T13:00:20.077Z,5.40
2018-11-27T13:02:48.389Z,5.30
2018-11-27T13:05:22.952Z,5.30
2018-11-27T13:07:52.428Z,5.30
2018-11-27T13:10:20.604Z,5.30
2018-11-27T13:12:48.792Z,5.30
2018-11-27T13:15:19.766Z,5.20
2018-11-27T13:17:49.006Z,5.20
2018-11-27T13:20:17.992Z,5.20
2018-11-27T13:22:46.427Z,5.20
2018-11-27T13:25:19.938Z,5.20
2018-11-27T13:27:48.915Z,5.10
2018-11-27T13:30:19.438Z,5.10
2018-11-27T13:32:49.240Z,5.10
2018-11-27T13:35:17.413Z,5.10
2018-11-27T13:37:46.619Z,5.00
2018-11-27T13:40:14.783Z,5.00
2018-11-27T13:42:42.991Z,5.00
2018-11-27T13:45:12.532Z,5.00
2018-11-27T13:47:40.928Z,5.00
2018-11-27T13:50:10.855Z,5.00
2018-11-27T13:52:39.464Z,5.00
2018-11-27T13:55:11.402Z,5.00
2018-11-27T13:57:39.567Z,4.90
2018-11-27T14:00:10.804Z,4.90
2018-11-27T14:02:39.022Z,4.90
2018-11-27T14:05:11.635Z,4.90
2018-11-27T14:07:39.844Z,4.90
2018-11-27T14:10:09.562Z,4.90
2018-11-27T14:12:37.833Z,4.90
2018-11-27T14:15:12.977Z,4.80
2018-11-27T14:17:41.266Z,4.80
2018-11-27T14:20:09.482Z,4.80
2018-11-27T14:22:37.660Z,4.90
2018-11-27T14:25:08.922Z,4.80
2018-11-27T14:27:39.858Z,4.80
2018-11-27T14:30:21.961Z,4.80
2018-11-27T14:32:55.469Z,4.80
2018-11-27T14:35:27.151Z,4.80
2018-11-27T14:37:55.491Z,4.80
2018-11-27T14:40:25.119Z,4.80
2018-11-27T14:42:53.374Z,4.80
2018-11-27T14:45:26.917Z,4.80
2018-11-27T14:47:59.154Z,4.90
2018-11-27T14:50:29.034Z,4.80
2018-11-27T14:52:57.234Z,4.90
2018-11-27T14:55:27.448Z,4.80
2018-11-27T14:57:55.630Z,4.80
2018-11-27T15:00:24.483Z,4.80
2018-11-27T15:02:52.763Z,4.80
2018-11-27T15:05:27.310Z,4.80
2018-11-27T15:07:55.487Z,4.80
2018-11-27T15:10:23.741Z,4.80
2018-11-27T15:12:52.039Z,4.80
2018-11-27T15:15:20.233Z,4.80
2018-11-27T15:17:48.400Z,4.80
2018-11-27T15:20:17.912Z,4.80
2018-11-27T15:22:46.127Z,4.80
2018-11-27T15:25:14.323Z,4.80
2018-11-27T15:27:42.524Z,4.80
2018-11-27T15:30:12.315Z,4.80
2018-11-27T15:32:40.538Z,4.80
2018-11-27T15:35:09.279Z,4.80
2018-11-27T15:37:37.452Z,4.80
2018-11-27T15:40:10.227Z,4.80
2018-11-27T15:42:38.418Z,4.70
2018-11-27T15:45:08.531Z,4.70
2018-11-27T15:47:36.745Z,4.70
2018-11-27T15:50:06.459Z,4.70
2018-11-27T15:52:34.639Z,4.70
2018-11-27T15:55:02.858Z,4.70
2018-11-27T15:57:31.031Z,4.70
2018-11-27T15:59:59.317Z,4.70
2018-11-27T16:02:28.236Z,4.70
2018-11-27T16:04:56.847Z,4.70
2018-11-27T16:07:25.535Z,4.70
2018-11-27T16:09:53.724Z,4.70
2018-11-27T16:12:21.899Z,4.70
2018-11-27T16:14:50.128Z,4.70
2018-11-27T16:17:18.306Z,4.70
2018-11-27T16:19:46.512Z,4.80
2018-11-27T16:22:14.676Z,4.80
2018-11-27T16:24:42.895Z,4.80
2018-11-27T16:27:11.062Z,4.80
2018-11-27T16:29:39.248Z,4.80
2018-11-27T16:32:07.418Z,4.80
2018-11-27T16:34:35.639Z,4.70
2018-11-27T16:37:03.823Z,4.70
2018-11-27T16:39:31.984Z,4.70
2018-11-27T16:42:00.325Z,4.60
2018-11-27T16:44:28.527Z,4.60
2018-11-27T16:46:56.719Z,4.50
2018-11-27T16:49:24.895Z,4.50
2018-11-27T16:51:53.080Z,4.40
2018-11-27T16:54:21.247Z,4.40
2018-11-27T16:56:49.447Z,4.30
2018-11-27T16:59:17.635Z,4.30
2018-11-27T17:01:45.848Z,4.20
2018-11-27T17:04:14.025Z,4.20
2018-11-27T17:06:42.233Z,4.10
2018-11-27T17:09:10.863Z,4.10
2018-11-27T17:11:39.095Z,4.10
2018-11-27T17:14:07.555Z,4.00
2018-11-27T17:16:35.829Z,4.00
2018-11-27T17:19:03.994Z,3.90
2018-11-27T17:21:32.182Z,3.80
2018-11-27T17:24:00.371Z,3.80
2018-11-27T17:26:28.577Z,3.70
2018-11-27T17:28:57.706Z,3.70
2018-11-27T17:31:25.982Z,3.60
2018-11-27T17:34:00.328Z,3.60
2018-11-27T17:36:28.564Z,3.50
2018-11-27T17:38:56.723Z,3.40
2018-11-27T17:41:25.354Z,3.40
2018-11-27T17:43:54.032Z,3.30
2018-11-27T17:48:59.757Z,3.20
2018-11-27T17:51:28.013Z,3.10
2018-11-27T17:53:56.380Z,3.10
2018-11-27T17:56:24.904Z,3.00
2018-11-27T17:58:53.081Z,3.00
2018-11-27T18:01:21.255Z,3.00
2018-11-27T18:03:49.997Z,3.00
2018-11-27T18:06:18.219Z,3.00
2018-11-27T18:08:46.435Z,3.00
2018-11-27T18:11:14.967Z,3.00
2018-11-27T18:13:43.501Z,3.00
2018-11-27T18:16:11.743Z,3.00
2018-11-27T18:18:39.903Z,3.00
2018-11-27T18:21:08.130Z,3.00
2018-11-27T18:23:36.290Z,3.00
2018-11-27T18:26:04.598Z,3.00
2018-11-27T18:28:34.175Z,3.00
2018-11-27T18:31:02.588Z,3.00
2018-11-27T18:33:30.779Z,3.00
2018-11-27T18:35:58.949Z,3.00
2018-11-27T18:38:28.025Z,3.00
2018-11-27T18:40:56.195Z,3.00
2018-11-27T18:43:24.492Z,3.00
2018-11-27T18:45:52.915Z,3.00
2018-11-27T18:48:21.571Z,3.00
2018-11-27T18:50:49.765Z,3.00
2018-11-27T18:53:18.018Z,3.00
2018-11-27T18:55:46.276Z,3.00
2018-11-27T18:58:14.628Z,3.00
2018-11-27T19:00:42.809Z,3.00
2018-11-27T19:03:11.036Z,3.10
2018-11-27T19:05:39.352Z,3.10
2018-11-27T19:08:07.576Z,3.10
2018-11-27T19:10:35.752Z,3.10
2018-11-27T19:13:04.516Z,3.10
2018-11-27T19:15:37.233Z,3.00
2018-11-27T19:18:23.712Z,3.00
2018-11-27T19:20:52.036Z,3.00
2018-11-27T19:23:21.588Z,3.00
2018-11-27T19:25:49.823Z,3.00
2018-11-27T19:28:18.160Z,3.00
2018-11-27T19:30:46.652Z,3.00
2018-11-27T19:33:14.907Z,3.00
2018-11-27T19:35:43.287Z,3.00
2018-11-27T19:38:14.827Z,3.00
2018-11-27T19:40:43.001Z,3.00
2018-11-27T19:43:11.448Z,2.90
2018-11-27T19:45:39.667Z,2.90
2018-11-27T19:48:08.903Z,3.00
2018-11-27T19:50:37.702Z,2.90
2018-11-27T19:53:11.913Z,2.90
2018-11-27T19:55:37.517Z,2.90
2018-11-27T19:58:06.571Z,2.90
2018-11-27T20:00:34.946Z,2.80
2018-11-27T20:03:03.223Z,2.80
2018-11-27T20:05:32.551Z,2.80
2018-11-27T20:08:01.027Z,2.80
2018-11-27T20:10:29.440Z,2.70
2018-11-27T20:12:57.679Z,2.70
2018-11-27T20:15:27.672Z,2.70
2018-11-27T20:17:56.404Z,2.70
2018-11-27T20:20:25.744Z,2.70
2018-11-27T20:22:54.991Z,2.70
2018-11-27T20:25:23.607Z,2.70
2018-11-27T20:27:52.288Z,2.80
2018-11-27T20:30:23.502Z,2.80
2018-11-27T20:32:55.980Z,2.80
2018-11-27T20:35:24.167Z,2.80
2018-11-27T20:37:53.311Z,2.80
2018-11-27T20:40:21.563Z,2.80
2018-11-27T20:42:49.920Z,2.70
2018-11-27T20:45:19.787Z,2.80
2018-11-27T20:47:49.673Z,2.70
2018-11-27T20:50:20.030Z,2.70
2018-11-27T20:52:48.349Z,2.60
2018-11-27T20:55:16.578Z,2.60
2018-11-27T20:57:49.335Z,2.60
2018-11-27T21:00:21.861Z,2.60
2018-11-27T21:02:50.987Z,2.50
2018-11-27T21:05:19.165Z,2.50
2018-11-27T21:07:47.418Z,2.50
2018-11-27T21:10:15.681Z,2.40
2018-11-27T21:12:44.459Z,2.10
2018-11-27T21:15:14.654Z,2.50
2018-11-27T21:17:42.837Z,2.40
2018-11-27T21:20:12.852Z,2.40
2018-11-27T21:22:41.163Z,2.40
2018-11-27T21:25:11.768Z,2.40
2018-11-27T21:27:39.961Z,2.50
2018-11-27T21:30:15.159Z,2.40
2018-11-27T21:32:43.510Z,2.40
2018-11-27T21:35:12.955Z,2.40
2018-11-27T21:37:41.172Z,2.40
2018-11-27T21:40:11.359Z,2.40
2018-11-27T21:42:39.552Z,2.40
2018-11-27T21:45:18.394Z,2.40
2018-11-27T21:47:47.175Z,2.40
2018-11-27T21:50:16.514Z,2.40
2018-11-27T21:52:45.847Z,2.40
2018-11-27T21:55:14.656Z,2.40
2018-11-27T21:57:42.973Z,2.40
2018-11-27T22:00:24.698Z,2.40
2018-11-27T22:02:54.900Z,2.40
2018-11-27T22:05:23.109Z,2.30
2018-11-27T22:07:51.289Z,2.30
2018-11-27T22:10:20.615Z,2.20
2018-11-27T22:12:50.799Z,2.20
2018-11-27T22:15:21.248Z,2.20
2018-11-27T22:17:49.483Z,2.20
2018-11-27T22:20:21.256Z,2.20
2018-11-27T22:22:45.876Z,2.10
2018-11-27T22:25:14.072Z,2.10
2018-11-27T22:27:42.277Z,2.00
2018-11-27T22:30:11.923Z,2.00
2018-11-27T22:32:40.719Z,2.00
2018-11-27T22:35:09.236Z,1.90
2018-11-27T22:37:37.394Z,1.90
2018-11-27T22:40:11.075Z,1.90
2018-11-27T22:42:39.312Z,1.80
2018-11-27T22:45:10.869Z,1.80
2018-11-27T22:47:39.059Z,1.80
2018-11-27T22:50:10.619Z,1.80
2018-11-27T22:52:38.823Z,1.80
2018-11-27T22:55:07.343Z,1.70
2018-11-27T22:57:35.548Z,1.70
2018-11-27T23:00:04.447Z,1.60
2018-11-27T23:02:32.619Z,1.60
2018-11-27T23:05:00.812Z,1.60
2018-11-27T23:07:34.282Z,1.50
2018-11-27T23:10:02.473Z,1.50
2018-11-27T23:12:30.653Z,1.40
2018-11-27T23:14:58.857Z,1.40
2018-11-27T23:17:27.023Z,1.40
2018-11-27T23:19:55.207Z,1.40
2018-11-27T23:22:23.379Z,1.40
2018-11-27T23:24:51.571Z,1.40
2018-11-27T23:27:19.950Z,1.40
2018-11-27T23:29:48.140Z,1.50
2018-11-27T23:32:16.308Z,1.50
2018-11-27T23:34:44.514Z,1.60
2018-11-27T23:37:13.672Z,1.60
2018-11-27T23:39:41.871Z,1.70
2018-11-27T23:42:10.035Z,1.80
2018-11-27T23:44:38.210Z,1.90
2018-11-27T23:47:06.380Z,2.00
2018-11-27T23:49:34.536Z,2.10
2018-11-27T23:52:02.728Z,2.20
2018-11-27T23:54:30.895Z,2.40
2018-11-27T23:56:59.082Z,2.50
2018-11-27T23:59:27.227Z,2.60
